sensor_id;sensor_type;location;lat;lon;timestamp;P1;durP1;ratioP1;P2;durP2;ratioP2
29574;SDS011;16507;51.046;6.406;2023-10-08T00:00:47;8.75;;;3.15;;
29574;SDS011;16507;51.046;6.406;2023-10-08T00:03:19;8.52;;;3.10;;
29574;SDS011;16507;51.046;6.406;2023-10-08T00:05:45;5.07;;;3.63;;
29574;SDS011;16507;51.046;6.406;2023-10-08T00:08:11;6.43;;;3.65;;
29574;SDS011;16507;51.046;6.406;2023-10-08T00:10:40;3.63;;;3.22;;
29574;SDS011;16507;51.046;6.406;2023-10-08T00:13:12;6.75;;;3.25;;
29574;SDS011;16507;51.046;6.406;2023-10-08T00:15:40;11.38;;;3.95;;
29574;SDS011;16507;51.046;6.406;2023-10-08T00:18:17;4.07;;;3.38;;
29574;SDS011;16507;51.046;6.406;2023-10-08T00:20:52;5.18;;;3.55;;
29574;SDS011;16507;51.046;6.406;2023-10-08T00:23:23;12.18;;;3.33;;
29574;SDS011;16507;51.046;6.406;2023-10-08T00:25:51;7.75;;;3.42;;
29574;SDS011;16507;51.046;6.406;2023-10-08T00:28:20;6.07;;;3.28;;
29574;SDS011;16507;51.046;6.406;2023-10-08T00:30:46;7.38;;;3.22;;
29574;SDS011;16507;51.046;6.406;2023-10-08T00:33:13;9.63;;;3.42;;
29574;SDS011;16507;51.046;6.406;2023-10-08T00:35:40;4.82;;;2.95;;
29574;SDS011;16507;51.046;6.406;2023-10-08T00:38:07;4.43;;;3.63;;
29574;SDS011;16507;51.046;6.406;2023-10-08T00:40:45;7.18;;;3.75;;
29574;SDS011;16507;51.046;6.406;2023-10-08T00:43:28;7.90;;;3.08;;
29574;SDS011;16507;51.046;6.406;2023-10-08T00:45:56;5.18;;;3.25;;
29574;SDS011;16507;51.046;6.406;2023-10-08T00:48:24;6.18;;;3.70;;
29574;SDS011;16507;51.046;6.406;2023-10-08T00:50:57;25.38;;;4.05;;
29574;SDS011;16507;51.046;6.406;2023-10-08T00:53:40;6.55;;;3.40;;
29574;SDS011;16507;51.046;6.406;2023-10-08T00:56:08;5.07;;;3.22;;
29574;SDS011;16507;51.046;6.406;2023-10-08T00:58:44;9.60;;;3.63;;
29574;SDS011;16507;51.046;6.406;2023-10-08T01:01:18;9.73;;;3.90;;
29574;SDS011;16507;51.046;6.406;2023-10-08T01:03:45;8.35;;;3.38;;
29574;SDS011;16507;51.046;6.406;2023-10-08T01:06:14;8.88;;;3.40;;
29574;SDS011;16507;51.046;6.406;2023-10-08T01:08:44;8.30;;;3.42;;
29574;SDS011;16507;51.046;6.406;2023-10-08T01:11:20;6.15;;;3.30;;
29574;SDS011;16507;51.046;6.406;2023-10-08T01:13:58;4.28;;;3.67;;
29574;SDS011;16507;51.046;6.406;2023-10-08T01:16:24;9.80;;;3.58;;
29574;SDS011;16507;51.046;6.406;2023-10-08T01:18:52;4.85;;;3.15;;
29574;SDS011;16507;51.046;6.406;2023-10-08T01:21:19;6.10;;;3.17;;
29574;SDS011;16507;51.046;6.406;2023-10-08T01:24:05;4.95;;;3.05;;
29574;SDS011;16507;51.046;6.406;2023-10-08T01:26:35;8.23;;;3.08;;
29574;SDS011;16507;51.046;6.406;2023-10-08T01:29:04;6.10;;;3.38;;
29574;SDS011;16507;51.046;6.406;2023-10-08T01:31:34;6.63;;;3.42;;
29574;SDS011;16507;51.046;6.406;2023-10-08T01:34:01;6.22;;;3.63;;
29574;SDS011;16507;51.046;6.406;2023-10-08T01:36:30;10.55;;;4.10;;
29574;SDS011;16507;51.046;6.406;2023-10-08T01:38:56;5.35;;;3.00;;
29574;SDS011;16507;51.046;6.406;2023-10-08T01:41:23;6.88;;;3.58;;
29574;SDS011;16507;51.046;6.406;2023-10-08T01:43:55;4.38;;;3.47;;
29574;SDS011;16507;51.046;6.406;2023-10-08T01:46:23;5.10;;;3.95;;
29574;SDS011;16507;51.046;6.406;2023-10-08T01:48:50;5.70;;;2.97;;
29574;SDS011;16507;51.046;6.406;2023-10-08T01:51:18;3.58;;;2.97;;
29574;SDS011;16507;51.046;6.406;2023-10-08T01:53:54;4.38;;;3.00;;
29574;SDS011;16507;51.046;6.406;2023-10-08T01:56:23;4.75;;;3.33;;
29574;SDS011;16507;51.046;6.406;2023-10-08T01:58:49;6.05;;;3.15;;
29574;SDS011;16507;51.046;6.406;2023-10-08T02:01:19;4.90;;;3.33;;
29574;SDS011;16507;51.046;6.406;2023-10-08T02:03:45;5.85;;;3.45;;
29574;SDS011;16507;51.046;6.406;2023-10-08T02:06:10;7.88;;;3.80;;
29574;SDS011;16507;51.046;6.406;2023-10-08T02:08:37;5.53;;;2.97;;
29574;SDS011;16507;51.046;6.406;2023-10-08T02:11:03;5.65;;;3.15;;
29574;SDS011;16507;51.046;6.406;2023-10-08T02:13:29;5.55;;;2.85;;
29574;SDS011;16507;51.046;6.406;2023-10-08T02:15:55;7.22;;;3.60;;
29574;SDS011;16507;51.046;6.406;2023-10-08T02:18:21;10.77;;;3.30;;
29574;SDS011;16507;51.046;6.406;2023-10-08T02:20:50;4.45;;;3.60;;
29574;SDS011;16507;51.046;6.406;2023-10-08T02:23:17;7.47;;;2.78;;
29574;SDS011;16507;51.046;6.406;2023-10-08T02:25:43;5.78;;;3.42;;
29574;SDS011;16507;51.046;6.406;2023-10-08T02:28:09;5.65;;;3.30;;
29574;SDS011;16507;51.046;6.406;2023-10-08T02:30:37;12.15;;;3.42;;
29574;SDS011;16507;51.046;6.406;2023-10-08T02:33:04;6.80;;;3.28;;
29574;SDS011;16507;51.046;6.406;2023-10-08T02:35:39;8.25;;;3.42;;
29574;SDS011;16507;51.046;6.406;2023-10-08T02:38:07;4.88;;;3.22;;
29574;SDS011;16507;51.046;6.406;2023-10-08T02:40:34;6.20;;;3.30;;
29574;SDS011;16507;51.046;6.406;2023-10-08T02:43:03;8.70;;;3.22;;
29574;SDS011;16507;51.046;6.406;2023-10-08T02:45:33;9.18;;;3.40;;
29574;SDS011;16507;51.046;6.406;2023-10-08T02:48:03;14.20;;;3.33;;
29574;SDS011;16507;51.046;6.406;2023-10-08T02:50:29;5.03;;;3.90;;
29574;SDS011;16507;51.046;6.406;2023-10-08T02:52:54;5.07;;;3.10;;
29574;SDS011;16507;51.046;6.406;2023-10-08T02:55:27;5.53;;;3.33;;
29574;SDS011;16507;51.046;6.406;2023-10-08T02:58:02;7.10;;;3.63;;
29574;SDS011;16507;51.046;6.406;2023-10-08T03:00:28;13.40;;;3.92;;
29574;SDS011;16507;51.046;6.406;2023-10-08T03:02:56;4.80;;;3.65;;
29574;SDS011;16507;51.046;6.406;2023-10-08T03:05:22;5.95;;;3.55;;
29574;SDS011;16507;51.046;6.406;2023-10-08T03:07:48;4.57;;;3.45;;
29574;SDS011;16507;51.046;6.406;2023-10-08T03:10:16;7.97;;;3.53;;
29574;SDS011;16507;51.046;6.406;2023-10-08T03:12:45;6.07;;;3.30;;
29574;SDS011;16507;51.046;6.406;2023-10-08T03:15:12;6.15;;;3.45;;
29574;SDS011;16507;51.046;6.406;2023-10-08T03:17:41;9.23;;;3.78;;
29574;SDS011;16507;51.046;6.406;2023-10-08T03:20:16;6.78;;;3.90;;
29574;SDS011;16507;51.046;6.406;2023-10-08T03:23:03;7.38;;;3.45;;
29574;SDS011;16507;51.046;6.406;2023-10-08T03:25:36;5.18;;;3.15;;
29574;SDS011;16507;51.046;6.406;2023-10-08T03:28:06;10.57;;;4.60;;
29574;SDS011;16507;51.046;6.406;2023-10-08T03:30:34;5.30;;;3.20;;
29574;SDS011;16507;51.046;6.406;2023-10-08T03:33:12;8.70;;;4.10;;
29574;SDS011;16507;51.046;6.406;2023-10-08T03:35:47;18.58;;;4.07;;
29574;SDS011;16507;51.046;6.406;2023-10-08T03:38:14;8.98;;;3.72;;
29574;SDS011;16507;51.046;6.406;2023-10-08T03:40:58;4.60;;;3.17;;
29574;SDS011;16507;51.046;6.406;2023-10-08T03:43:33;6.70;;;3.55;;
29574;SDS011;16507;51.046;6.406;2023-10-08T03:46:00;4.53;;;3.40;;
29574;SDS011;16507;51.046;6.406;2023-10-08T03:48:31;13.27;;;3.45;;
29574;SDS011;16507;51.046;6.406;2023-10-08T03:51:02;7.47;;;3.95;;
29574;SDS011;16507;51.046;6.406;2023-10-08T03:53:34;5.93;;;3.53;;
29574;SDS011;16507;51.046;6.406;2023-10-08T03:56:20;9.15;;;3.72;;
29574;SDS011;16507;51.046;6.406;2023-10-08T03:58:45;6.32;;;3.35;;
29574;SDS011;16507;51.046;6.406;2023-10-08T04:01:12;7.80;;;3.97;;
29574;SDS011;16507;51.046;6.406;2023-10-08T04:03:43;6.10;;;3.42;;
29574;SDS011;16507;51.046;6.406;2023-10-08T04:06:21;8.82;;;3.75;;
29574;SDS011;16507;51.046;6.406;2023-10-08T04:08:53;8.48;;;4.00;;
29574;SDS011;16507;51.046;6.406;2023-10-08T04:11:35;8.45;;;3.55;;
29574;SDS011;16507;51.046;6.406;2023-10-08T04:16:32;6.28;;;3.50;;
29574;SDS011;16507;51.046;6.406;2023-10-08T04:19:02;10.07;;;3.80;;
29574;SDS011;16507;51.046;6.406;2023-10-08T04:21:29;5.80;;;3.67;;
29574;SDS011;16507;51.046;6.406;2023-10-08T04:23:55;7.95;;;3.72;;
29574;SDS011;16507;51.046;6.406;2023-10-08T04:26:22;5.47;;;3.58;;
29574;SDS011;16507;51.046;6.406;2023-10-08T04:28:55;9.73;;;3.83;;
29574;SDS011;16507;51.046;6.406;2023-10-08T04:31:30;6.10;;;3.40;;
29574;SDS011;16507;51.046;6.406;2023-10-08T04:34:08;10.10;;;3.15;;
29574;SDS011;16507;51.046;6.406;2023-10-08T04:36:47;6.95;;;3.50;;
29574;SDS011;16507;51.046;6.406;2023-10-08T04:39:20;4.75;;;3.47;;
29574;SDS011;16507;51.046;6.406;2023-10-08T04:42:12;6.00;;;3.60;;
29574;SDS011;16507;51.046;6.406;2023-10-08T04:44:39;6.82;;;3.72;;
29574;SDS011;16507;51.046;6.406;2023-10-08T04:47:06;7.60;;;3.65;;
29574;SDS011;16507;51.046;6.406;2023-10-08T04:49:33;11.07;;;3.58;;
29574;SDS011;16507;51.046;6.406;2023-10-08T04:52:06;5.07;;;3.22;;
29574;SDS011;16507;51.046;6.406;2023-10-08T04:54:41;7.68;;;3.90;;
29574;SDS011;16507;51.046;6.406;2023-10-08T04:57:16;13.77;;;4.07;;
29574;SDS011;16507;51.046;6.406;2023-10-08T04:59:42;8.02;;;3.65;;
29574;SDS011;16507;51.046;6.406;2023-10-08T05:02:08;6.00;;;3.78;;
29574;SDS011;16507;51.046;6.406;2023-10-08T05:04:54;11.88;;;4.30;;
29574;SDS011;16507;51.046;6.406;2023-10-08T05:07:47;5.57;;;3.53;;
29574;SDS011;16507;51.046;6.406;2023-10-08T05:10:16;11.20;;;3.60;;
29574;SDS011;16507;51.046;6.406;2023-10-08T05:13:07;13.95;;;4.05;;
29574;SDS011;16507;51.046;6.406;2023-10-08T05:15:33;15.63;;;4.07;;
29574;SDS011;16507;51.046;6.406;2023-10-08T05:18:04;14.15;;;4.20;;
29574;SDS011;16507;51.046;6.406;2023-10-08T05:20:48;12.65;;;4.40;;
29574;SDS011;16507;51.046;6.406;2023-10-08T05:23:17;4.47;;;3.95;;
29574;SDS011;16507;51.046;6.406;2023-10-08T05:25:51;18.88;;;5.00;;
29574;SDS011;16507;51.046;6.406;2023-10-08T05:28:37;8.20;;;3.80;;
29574;SDS011;16507;51.046;6.406;2023-10-08T05:31:22;11.82;;;3.67;;
29574;SDS011;16507;51.046;6.406;2023-10-08T05:34:07;17.27;;;5.22;;
29574;SDS011;16507;51.046;6.406;2023-10-08T05:36:42;9.10;;;3.63;;
29574;SDS011;16507;51.046;6.406;2023-10-08T05:39:27;23.20;;;4.50;;
29574;SDS011;16507;51.046;6.406;2023-10-08T05:42:07;10.63;;;3.58;;
29574;SDS011;16507;51.046;6.406;2023-10-08T05:44:56;9.88;;;3.78;;
29574;SDS011;16507;51.046;6.406;2023-10-08T05:47:34;5.65;;;4.05;;
29574;SDS011;16507;51.046;6.406;2023-10-08T05:50:01;9.95;;;4.03;;
29574;SDS011;16507;51.046;6.406;2023-10-08T05:52:56;6.07;;;3.65;;
29574;SDS011;16507;51.046;6.406;2023-10-08T05:55:22;18.15;;;4.45;;
29574;SDS011;16507;51.046;6.406;2023-10-08T05:57:51;27.23;;;5.53;;
29574;SDS011;16507;51.046;6.406;2023-10-08T06:00:48;6.40;;;3.92;;
29574;SDS011;16507;51.046;6.406;2023-10-08T06:03:16;22.23;;;4.15;;
29574;SDS011;16507;51.046;6.406;2023-10-08T06:06:07;19.52;;;4.28;;
29574;SDS011;16507;51.046;6.406;2023-10-08T06:08:53;7.25;;;3.65;;
29574;SDS011;16507;51.046;6.406;2023-10-08T06:11:46;7.65;;;3.70;;
29574;SDS011;16507;51.046;6.406;2023-10-08T06:14:32;25.02;;;5.13;;
29574;SDS011;16507;51.046;6.406;2023-10-08T06:17:23;17.02;;;3.65;;
29574;SDS011;16507;51.046;6.406;2023-10-08T06:19:59;13.20;;;4.07;;
29574;SDS011;16507;51.046;6.406;2023-10-08T06:22:26;7.90;;;3.88;;
29574;SDS011;16507;51.046;6.406;2023-10-08T06:24:52;17.52;;;4.43;;
29574;SDS011;16507;51.046;6.406;2023-10-08T06:27:38;14.55;;;3.85;;
29574;SDS011;16507;51.046;6.406;2023-10-08T06:30:05;7.65;;;4.40;;
29574;SDS011;16507;51.046;6.406;2023-10-08T06:32:31;17.40;;;5.28;;
29574;SDS011;16507;51.046;6.406;2023-10-08T06:34:56;9.93;;;3.63;;
29574;SDS011;16507;51.046;6.406;2023-10-08T06:37:22;10.07;;;4.20;;
29574;SDS011;16507;51.046;6.406;2023-10-08T06:39:47;10.32;;;4.47;;
29574;SDS011;16507;51.046;6.406;2023-10-08T06:42:13;13.38;;;3.97;;
29574;SDS011;16507;51.046;6.406;2023-10-08T06:44:40;7.10;;;3.72;;
29574;SDS011;16507;51.046;6.406;2023-10-08T06:47:09;8.73;;;3.65;;
29574;SDS011;16507;51.046;6.406;2023-10-08T06:49:35;12.50;;;4.35;;
29574;SDS011;16507;51.046;6.406;2023-10-08T06:52:01;5.25;;;4.22;;
29574;SDS011;16507;51.046;6.406;2023-10-08T06:54:27;10.80;;;4.53;;
29574;SDS011;16507;51.046;6.406;2023-10-08T06:56:55;5.82;;;4.00;;
29574;SDS011;16507;51.046;6.406;2023-10-08T06:59:21;6.35;;;3.80;;
29574;SDS011;16507;51.046;6.406;2023-10-08T07:01:50;10.55;;;4.78;;
29574;SDS011;16507;51.046;6.406;2023-10-08T07:04:17;9.13;;;4.38;;
29574;SDS011;16507;51.046;6.406;2023-10-08T07:06:44;12.07;;;3.95;;
29574;SDS011;16507;51.046;6.406;2023-10-08T07:09:14;7.03;;;3.75;;
29574;SDS011;16507;51.046;6.406;2023-10-08T07:11:52;9.88;;;4.10;;
29574;SDS011;16507;51.046;6.406;2023-10-08T07:14:24;11.05;;;4.45;;
29574;SDS011;16507;51.046;6.406;2023-10-08T07:16:55;13.73;;;4.40;;
29574;SDS011;16507;51.046;6.406;2023-10-08T07:19:28;11.82;;;4.22;;
29574;SDS011;16507;51.046;6.406;2023-10-08T07:22:04;16.02;;;4.50;;
29574;SDS011;16507;51.046;6.406;2023-10-08T07:24:43;8.60;;;4.65;;
29574;SDS011;16507;51.046;6.406;2023-10-08T07:27:11;7.15;;;4.85;;
29574;SDS011;16507;51.046;6.406;2023-10-08T07:29:37;10.23;;;4.55;;
29574;SDS011;16507;51.046;6.406;2023-10-08T07:32:03;9.20;;;5.50;;
29574;SDS011;16507;51.046;6.406;2023-10-08T07:34:40;14.30;;;5.10;;
29574;SDS011;16507;51.046;6.406;2023-10-08T07:37:05;17.08;;;4.95;;
29574;SDS011;16507;51.046;6.406;2023-10-08T07:39:31;7.25;;;4.65;;
29574;SDS011;16507;51.046;6.406;2023-10-08T07:41:57;5.65;;;4.55;;
29574;SDS011;16507;51.046;6.406;2023-10-08T07:44:24;7.20;;;4.57;;
29574;SDS011;16507;51.046;6.406;2023-10-08T07:46:53;8.35;;;4.70;;
29574;SDS011;16507;51.046;6.406;2023-10-08T07:49:25;9.75;;;4.70;;
29574;SDS011;16507;51.046;6.406;2023-10-08T07:51:55;12.95;;;4.70;;
29574;SDS011;16507;51.046;6.406;2023-10-08T07:54:23;21.23;;;6.88;;
29574;SDS011;16507;51.046;6.406;2023-10-08T07:56:52;17.63;;;5.47;;
29574;SDS011;16507;51.046;6.406;2023-10-08T07:59:41;10.10;;;4.07;;
29574;SDS011;16507;51.046;6.406;2023-10-08T08:02:11;9.60;;;5.30;;
29574;SDS011;16507;51.046;6.406;2023-10-08T08:04:39;15.75;;;5.50;;
29574;SDS011;16507;51.046;6.406;2023-10-08T08:07:09;6.82;;;4.28;;
29574;SDS011;16507;51.046;6.406;2023-10-08T08:09:47;8.27;;;4.43;;
29574;SDS011;16507;51.046;6.406;2023-10-08T08:12:23;14.13;;;4.53;;
29574;SDS011;16507;51.046;6.406;2023-10-08T08:14:50;10.02;;;4.78;;
29574;SDS011;16507;51.046;6.406;2023-10-08T08:17:19;10.45;;;4.25;;
29574;SDS011;16507;51.046;6.406;2023-10-08T08:19:48;7.97;;;4.18;;
29574;SDS011;16507;51.046;6.406;2023-10-08T08:22:15;6.78;;;4.75;;
29574;SDS011;16507;51.046;6.406;2023-10-08T08:24:48;12.07;;;5.00;;
29574;SDS011;16507;51.046;6.406;2023-10-08T08:27:19;11.15;;;4.72;;
29574;SDS011;16507;51.046;6.406;2023-10-08T08:29:56;11.00;;;4.72;;
29574;SDS011;16507;51.046;6.406;2023-10-08T08:32:34;8.05;;;4.50;;
29574;SDS011;16507;51.046;6.406;2023-10-08T08:35:05;15.88;;;5.40;;
29574;SDS011;16507;51.046;6.406;2023-10-08T08:37:32;6.30;;;4.53;;
29574;SDS011;16507;51.046;6.406;2023-10-08T08:40:01;13.60;;;6.60;;
29574;SDS011;16507;51.046;6.406;2023-10-08T08:42:33;13.40;;;4.70;;
29574;SDS011;16507;51.046;6.406;2023-10-08T08:45:00;15.40;;;5.57;;
29574;SDS011;16507;51.046;6.406;2023-10-08T08:47:33;8.63;;;5.10;;
29574;SDS011;16507;51.046;6.406;2023-10-08T08:50:03;9.50;;;5.43;;
29574;SDS011;16507;51.046;6.406;2023-10-08T08:52:34;10.23;;;5.57;;
29574;SDS011;16507;51.046;6.406;2023-10-08T08:55:02;16.25;;;4.75;;
29574;SDS011;16507;51.046;6.406;2023-10-08T08:57:31;15.77;;;6.00;;
29574;SDS011;16507;51.046;6.406;2023-10-08T08:59:58;14.57;;;6.13;;
29574;SDS011;16507;51.046;6.406;2023-10-08T09:02:24;13.77;;;5.97;;
29574;SDS011;16507;51.046;6.406;2023-10-08T09:04:50;17.08;;;6.35;;
29574;SDS011;16507;51.046;6.406;2023-10-08T09:07:19;17.90;;;6.70;;
29574;SDS011;16507;51.046;6.406;2023-10-08T09:09:46;13.80;;;6.97;;
29574;SDS011;16507;51.046;6.406;2023-10-08T09:12:15;18.98;;;6.65;;
29574;SDS011;16507;51.046;6.406;2023-10-08T09:14:41;12.65;;;6.72;;
29574;SDS011;16507;51.046;6.406;2023-10-08T09:17:09;15.23;;;6.05;;
29574;SDS011;16507;51.046;6.406;2023-10-08T09:19:36;20.17;;;6.40;;
29574;SDS011;16507;51.046;6.406;2023-10-08T09:22:04;12.95;;;6.55;;
29574;SDS011;16507;51.046;6.406;2023-10-08T09:24:40;25.27;;;7.13;;
29574;SDS011;16507;51.046;6.406;2023-10-08T09:27:07;20.42;;;7.40;;
29574;SDS011;16507;51.046;6.406;2023-10-08T09:29:33;28.40;;;8.77;;
29574;SDS011;16507;51.046;6.406;2023-10-08T09:32:04;22.48;;;7.93;;
29574;SDS011;16507;51.046;6.406;2023-10-08T09:34:31;26.73;;;8.32;;
29574;SDS011;16507;51.046;6.406;2023-10-08T09:36:58;32.05;;;8.57;;
29574;SDS011;16507;51.046;6.406;2023-10-08T09:39:28;27.23;;;7.60;;
29574;SDS011;16507;51.046;6.406;2023-10-08T09:41:59;23.58;;;8.23;;
29574;SDS011;16507;51.046;6.406;2023-10-08T09:44:27;31.63;;;8.02;;
29574;SDS011;16507;51.046;6.406;2023-10-08T09:47:03;37.05;;;8.73;;
29574;SDS011;16507;51.046;6.406;2023-10-08T09:49:31;26.42;;;9.43;;
29574;SDS011;16507;51.046;6.406;2023-10-08T09:52:01;31.25;;;8.68;;
29574;SDS011;16507;51.046;6.406;2023-10-08T09:54:31;26.95;;;8.27;;
29574;SDS011;16507;51.046;6.406;2023-10-08T09:57:03;25.80;;;8.60;;
29574;SDS011;16507;51.046;6.406;2023-10-08T09:59:31;36.38;;;10.35;;
29574;SDS011;16507;51.046;6.406;2023-10-08T10:01:58;31.30;;;8.65;;
29574;SDS011;16507;51.046;6.406;2023-10-08T10:04:25;30.80;;;8.98;;
29574;SDS011;16507;51.046;6.406;2023-10-08T10:06:56;28.88;;;9.35;;
29574;SDS011;16507;51.046;6.406;2023-10-08T10:09:26;24.90;;;8.68;;
29574;SDS011;16507;51.046;6.406;2023-10-08T10:11:52;28.50;;;9.02;;
29574;SDS011;16507;51.046;6.406;2023-10-08T10:14:22;27.92;;;8.65;;
29574;SDS011;16507;51.046;6.406;2023-10-08T10:17:08;28.92;;;8.52;;
29574;SDS011;16507;51.046;6.406;2023-10-08T10:19:49;26.67;;;8.57;;
29574;SDS011;16507;51.046;6.406;2023-10-08T10:22:26;37.30;;;9.15;;
29574;SDS011;16507;51.046;6.406;2023-10-08T10:24:56;31.45;;;9.65;;
29574;SDS011;16507;51.046;6.406;2023-10-08T10:27:23;33.10;;;9.32;;
29574;SDS011;16507;51.046;6.406;2023-10-08T10:29:49;31.23;;;10.48;;
29574;SDS011;16507;51.046;6.406;2023-10-08T10:32:15;41.90;;;10.98;;
29574;SDS011;16507;51.046;6.406;2023-10-08T10:34:42;34.85;;;11.13;;
29574;SDS011;16507;51.046;6.406;2023-10-08T10:37:09;32.20;;;9.02;;
29574;SDS011;16507;51.046;6.406;2023-10-08T10:39:50;30.90;;;10.23;;
29574;SDS011;16507;51.046;6.406;2023-10-08T10:42:26;26.00;;;9.75;;
29574;SDS011;16507;51.046;6.406;2023-10-08T10:44:53;30.77;;;9.52;;
29574;SDS011;16507;51.046;6.406;2023-10-08T10:47:23;41.58;;;10.40;;
29574;SDS011;16507;51.046;6.406;2023-10-08T10:49:53;28.50;;;10.80;;
29574;SDS011;16507;51.046;6.406;2023-10-08T10:52:31;32.80;;;9.98;;
29574;SDS011;16507;51.046;6.406;2023-10-08T10:55:06;28.90;;;10.02;;
29574;SDS011;16507;51.046;6.406;2023-10-08T11:00:24;37.90;;;10.13;;
29574;SDS011;16507;51.046;6.406;2023-10-08T11:03:01;28.98;;;9.98;;
29574;SDS011;16507;51.046;6.406;2023-10-08T11:05:29;35.47;;;9.38;;
29574;SDS011;16507;51.046;6.406;2023-10-08T11:07:56;35.35;;;9.07;;
29574;SDS011;16507;51.046;6.406;2023-10-08T11:10:33;33.05;;;8.90;;
29574;SDS011;16507;51.046;6.406;2023-10-08T11:12:59;28.23;;;8.57;;
29574;SDS011;16507;51.046;6.406;2023-10-08T11:15:29;28.33;;;8.75;;
29574;SDS011;16507;51.046;6.406;2023-10-08T11:18:11;31.55;;;9.95;;
29574;SDS011;16507;51.046;6.406;2023-10-08T11:20:40;33.72;;;10.10;;
29574;SDS011;16507;51.046;6.406;2023-10-08T11:23:09;33.25;;;10.43;;
29574;SDS011;16507;51.046;6.406;2023-10-08T11:28:20;35.00;;;9.63;;
29574;SDS011;16507;51.046;6.406;2023-10-08T11:30:47;40.60;;;10.60;;
29574;SDS011;16507;51.046;6.406;2023-10-08T11:33:16;38.58;;;10.38;;
29574;SDS011;16507;51.046;6.406;2023-10-08T11:35:55;38.15;;;11.05;;
29574;SDS011;16507;51.046;6.406;2023-10-08T11:38:23;32.23;;;9.63;;
29574;SDS011;16507;51.046;6.406;2023-10-08T11:40:49;29.38;;;10.10;;
29574;SDS011;16507;51.046;6.406;2023-10-08T11:43:16;30.23;;;10.27;;
29574;SDS011;16507;51.046;6.406;2023-10-08T11:45:45;27.75;;;9.48;;
29574;SDS011;16507;51.046;6.406;2023-10-08T11:48:13;27.17;;;10.02;;
29574;SDS011;16507;51.046;6.406;2023-10-08T11:50:42;35.15;;;10.32;;
29574;SDS011;16507;51.046;6.406;2023-10-08T11:53:08;25.85;;;9.77;;
29574;SDS011;16507;51.046;6.406;2023-10-08T11:55:36;23.88;;;9.07;;
29574;SDS011;16507;51.046;6.406;2023-10-08T11:58:04;34.85;;;10.02;;
29574;SDS011;16507;51.046;6.406;2023-10-08T12:00:42;22.58;;;9.90;;
29574;SDS011;16507;51.046;6.406;2023-10-08T12:03:12;22.83;;;8.65;;
29574;SDS011;16507;51.046;6.406;2023-10-08T12:05:43;29.07;;;10.40;;
29574;SDS011;16507;51.046;6.406;2023-10-08T12:08:18;28.63;;;10.15;;
29574;SDS011;16507;51.046;6.406;2023-10-08T12:10:47;24.23;;;9.68;;
29574;SDS011;16507;51.046;6.406;2023-10-08T12:13:14;32.35;;;9.77;;
29574;SDS011;16507;51.046;6.406;2023-10-08T12:15:43;23.73;;;9.43;;
29574;SDS011;16507;51.046;6.406;2023-10-08T12:18:09;35.03;;;10.48;;
29574;SDS011;16507;51.046;6.406;2023-10-08T12:20:51;23.83;;;9.60;;
29574;SDS011;16507;51.046;6.406;2023-10-08T12:23:17;26.70;;;8.88;;
29574;SDS011;16507;51.046;6.406;2023-10-08T12:25:54;25.75;;;9.68;;
29574;SDS011;16507;51.046;6.406;2023-10-08T12:28:24;25.80;;;10.18;;
29574;SDS011;16507;51.046;6.406;2023-10-08T12:30:53;27.88;;;10.43;;
29574;SDS011;16507;51.046;6.406;2023-10-08T12:33:21;37.88;;;10.10;;
29574;SDS011;16507;51.046;6.406;2023-10-08T12:35:49;31.83;;;10.13;;
29574;SDS011;16507;51.046;6.406;2023-10-08T12:38:18;27.35;;;10.25;;
29574;SDS011;16507;51.046;6.406;2023-10-08T12:40:47;27.75;;;10.15;;
29574;SDS011;16507;51.046;6.406;2023-10-08T12:43:17;29.50;;;8.93;;
29574;SDS011;16507;51.046;6.406;2023-10-08T12:45:47;24.63;;;10.20;;
29574;SDS011;16507;51.046;6.406;2023-10-08T12:48:23;31.35;;;10.07;;
29574;SDS011;16507;51.046;6.406;2023-10-08T12:50:51;28.45;;;10.35;;
29574;SDS011;16507;51.046;6.406;2023-10-08T12:53:23;23.98;;;9.82;;
29574;SDS011;16507;51.046;6.406;2023-10-08T12:55:59;29.00;;;10.82;;
29574;SDS011;16507;51.046;6.406;2023-10-08T12:58:35;27.27;;;11.00;;
29574;SDS011;16507;51.046;6.406;2023-10-08T13:01:09;32.80;;;10.25;;
29574;SDS011;16507;51.046;6.406;2023-10-08T13:03:38;28.42;;;11.13;;
29574;SDS011;16507;51.046;6.406;2023-10-08T13:06:11;26.55;;;11.35;;
29574;SDS011;16507;51.046;6.406;2023-10-08T13:08:58;29.73;;;10.23;;
29574;SDS011;16507;51.046;6.406;2023-10-08T13:11:25;26.27;;;9.88;;
29574;SDS011;16507;51.046;6.406;2023-10-08T13:13:54;30.40;;;9.25;;
29574;SDS011;16507;51.046;6.406;2023-10-08T13:16:24;26.65;;;10.20;;
29574;SDS011;16507;51.046;6.406;2023-10-08T13:21:26;36.47;;;9.88;;
29574;SDS011;16507;51.046;6.406;2023-10-08T13:23:53;21.73;;;10.23;;
29574;SDS011;16507;51.046;6.406;2023-10-08T13:26:24;32.00;;;10.50;;
29574;SDS011;16507;51.046;6.406;2023-10-08T13:28:54;32.13;;;10.57;;
29574;SDS011;16507;51.046;6.406;2023-10-08T13:31:19;23.40;;;9.73;;
29574;SDS011;16507;51.046;6.406;2023-10-08T13:33:46;27.88;;;9.70;;
29574;SDS011;16507;51.046;6.406;2023-10-08T13:36:17;30.08;;;9.88;;
29574;SDS011;16507;51.046;6.406;2023-10-08T13:38:43;32.13;;;10.90;;
29574;SDS011;16507;51.046;6.406;2023-10-08T13:41:11;30.00;;;10.63;;
29574;SDS011;16507;51.046;6.406;2023-10-08T13:43:43;30.05;;;10.70;;
29574;SDS011;16507;51.046;6.406;2023-10-08T13:46:16;21.85;;;9.32;;
29574;SDS011;16507;51.046;6.406;2023-10-08T13:48:44;25.08;;;9.18;;
29574;SDS011;16507;51.046;6.406;2023-10-08T13:51:14;32.92;;;10.77;;
29574;SDS011;16507;51.046;6.406;2023-10-08T13:53:53;31.42;;;10.63;;
29574;SDS011;16507;51.046;6.406;2023-10-08T13:56:24;26.45;;;9.50;;
29574;SDS011;16507;51.046;6.406;2023-10-08T13:58:54;49.25;;;10.98;;
29574;SDS011;16507;51.046;6.406;2023-10-08T14:01:40;31.40;;;9.20;;
29574;SDS011;16507;51.046;6.406;2023-10-08T14:04:10;28.73;;;8.75;;
29574;SDS011;16507;51.046;6.406;2023-10-08T14:06:37;32.58;;;8.05;;
29574;SDS011;16507;51.046;6.406;2023-10-08T14:09:07;29.50;;;10.18;;
29574;SDS011;16507;51.046;6.406;2023-10-08T14:11:34;20.20;;;8.77;;
29574;SDS011;16507;51.046;6.406;2023-10-08T14:14:00;31.48;;;9.43;;
29574;SDS011;16507;51.046;6.406;2023-10-08T14:16:35;24.42;;;9.30;;
29574;SDS011;16507;51.046;6.406;2023-10-08T14:19:07;28.42;;;9.00;;
29574;SDS011;16507;51.046;6.406;2023-10-08T14:21:39;30.73;;;9.02;;
29574;SDS011;16507;51.046;6.406;2023-10-08T14:24:18;18.98;;;8.23;;
29574;SDS011;16507;51.046;6.406;2023-10-08T14:26:45;27.13;;;8.65;;
29574;SDS011;16507;51.046;6.406;2023-10-08T14:29:18;24.48;;;9.35;;
29574;SDS011;16507;51.046;6.406;2023-10-08T14:31:43;29.10;;;10.10;;
29574;SDS011;16507;51.046;6.406;2023-10-08T14:34:14;27.65;;;9.82;;
29574;SDS011;16507;51.046;6.406;2023-10-08T14:36:46;28.38;;;8.85;;
29574;SDS011;16507;51.046;6.406;2023-10-08T14:39:31;20.02;;;9.18;;
29574;SDS011;16507;51.046;6.406;2023-10-08T14:42:16;17.92;;;9.30;;
29574;SDS011;16507;51.046;6.406;2023-10-08T14:45:01;30.77;;;9.60;;
29574;SDS011;16507;51.046;6.406;2023-10-08T14:47:27;33.60;;;10.55;;
29574;SDS011;16507;51.046;6.406;2023-10-08T14:49:53;22.70;;;9.13;;
29574;SDS011;16507;51.046;6.406;2023-10-08T14:52:18;35.75;;;8.80;;
29574;SDS011;16507;51.046;6.406;2023-10-08T14:54:44;19.88;;;8.60;;
29574;SDS011;16507;51.046;6.406;2023-10-08T14:57:11;19.20;;;8.10;;
29574;SDS011;16507;51.046;6.406;2023-10-08T14:59:43;22.02;;;9.68;;
29574;SDS011;16507;51.046;6.406;2023-10-08T15:02:08;28.30;;;9.10;;
29574;SDS011;16507;51.046;6.406;2023-10-08T15:04:37;39.22;;;9.60;;
29574;SDS011;16507;51.046;6.406;2023-10-08T15:07:05;26.80;;;9.23;;
29574;SDS011;16507;51.046;6.406;2023-10-08T15:09:36;25.33;;;8.35;;
29574;SDS011;16507;51.046;6.406;2023-10-08T15:12:02;19.23;;;7.82;;